Weather reports worldwide

Advertisment
Pajala Airport, Sweden (2096): temperature & dewpoint: 11.10.2019 23:00:00 - 17.10.2019 23:00:00 (CEST)Pajala Airport, Sweden (2096): wind speed: 11.10.2019 23:00:00 - 17.10.2019 23:00:00 (CEST)Pajala Airport, Sweden (2096): wind direction: 11.10.2019 23:00:00 - 17.10.2019 23:00:00 (CEST)Pajala Airport, Sweden (2096): visibility: 11.10.2019 23:00:00 - 17.10.2019 23:00:00 (CEST)
Date & Time tt [°C] td [°C] ff [km/h] ff [kn] dd vv [km]
17.10.2019 23:00:00 -2,0 -3,0 9 5 SE -
17.10.2019 22:00:00 -2,0 -3,0 11 6 SE -
17.10.2019 21:00:00 -2,0 -4,0 9 5 SSE -
17.10.2019 20:00:00 -3,0 -4,0 8 4 ESE -
17.10.2019 19:00:00 -3,0 -5,0 5 3 ENE 10
17.10.2019 18:00:00 -3,0 - 5 3 - 10
17.10.2019 17:00:00 -3,0 -5,0 5 3 E 10
17.10.2019 16:00:00 -3,0 -5,0 5 3 E 10
17.10.2019 15:00:00 -4,0 -5,0 4 2 - -
17.10.2019 14:00:00 -4,0 -6,0 8 4 ESE -
17.10.2019 13:00:00 -5,0 -6,0 5 3 - -
17.10.2019 12:00:00 -5,0 -6,0 8 4 SSE -
17.10.2019 11:00:00 -5,0 - 13 7 SSE -
17.10.2019 10:00:00 -5,0 -6,0 8 4 SSE -
17.10.2019 09:00:00 -5,0 -6,0 5 3 - -
17.10.2019 08:00:00 -6,0 -6,0 4 2 ENE -
17.10.2019 07:00:00 -6,0 -6,0 5 3 - -
17.10.2019 06:00:00 -6,0 -7,0 0 0 N 10
17.10.2019 05:00:00 -6,0 -7,0 0 0 N 4,9
17.10.2019 04:00:00 -6,0 -7,0 0 0 N -
17.10.2019 03:00:00 -6,0 -7,0 5 3 - -
17.10.2019 02:00:00 -6,0 -6,0 4 2 - -
17.10.2019 01:00:00 -6,0 -7,0 2 1 - -
17.10.2019 00:00:00 -5,0 -6,0 4 2 - -
16.10.2019 23:00:00 -5,0 -6,0 5 3 NNW -
16.10.2019 22:00:00 -5,0 -6,0 0 0 N -
16.10.2019 21:00:00 -5,0 -6,0 4 2 W -
16.10.2019 20:00:00 -4,0 -5,0 4 2 - 10
16.10.2019 19:00:00 -4,0 -5,0 4 2 - 2,5
16.10.2019 18:00:00 -4,0 -5,0 2 1 - 8
16.10.2019 17:00:00 -4,0 -5,0 4 2 SW 9
16.10.2019 16:00:00 -4,0 -5,0 5 3 N 9
16.10.2019 15:00:00 -4,0 -5,0 0 0 N 10
16.10.2019 14:00:00 -4,0 -5,0 0 0 N 10
16.10.2019 13:00:00 -4,0 -5,0 5 3 W 8
16.10.2019 12:00:00 -5,0 - 4 2 - 10
16.10.2019 11:00:00 -5,0 -6,0 5 3 WSW 10
16.10.2019 10:00:00 -5,0 -6,0 5 3 WSW -
16.10.2019 09:00:00 -6,0 -7,0 8 4 W -
16.10.2019 08:00:00 -6,0 -6,0 5 3 W -
16.10.2019 07:00:00 -5,0 -6,0 5 3 W 6
16.10.2019 06:00:00 -4,0 -5,0 4 2 W 4,1
16.10.2019 05:00:00 -4,0 -4,0 5 3 WNW -
16.10.2019 04:00:00 -3,0 -4,0 8 4 NW -
16.10.2019 03:00:00 -3,0 -4,0 4 2 W -
16.10.2019 02:00:00 -4,0 -4,0 0 0 N -
16.10.2019 01:00:00 -3,0 -4,0 4 2 - -
16.10.2019 00:00:00 -3,0 -4,0 2 1 N -
15.10.2019 23:00:00 -3,0 -4,0 4 2 NNE -
15.10.2019 22:00:00 -3,0 -4,0 2 1 - -
15.10.2019 21:00:00 -4,0 -5,0 4 2 SE 10
15.10.2019 20:00:00 -4,0 -6,0 0 0 N 10
15.10.2019 19:00:00 -4,0 -5,0 2 1 E 10
15.10.2019 18:00:00 -4,0 -6,0 5 3 E 10
15.10.2019 17:00:00 -3,0 -5,0 2 1 - 10
15.10.2019 16:00:00 0,0 -5,0 5 3 SSE 10
15.10.2019 15:00:00 0,0 -5,0 9 5 SE -
15.10.2019 14:00:00 0,0 -5,0 8 4 S -
15.10.2019 13:00:00 -2,0 -6,0 0 0 N -
15.10.2019 12:00:00 -4,0 -7,0 0 0 N 10
15.10.2019 11:00:00 -5,0 -8,0 0 0 N 10
15.10.2019 10:00:00 -7,0 -8,0 2 1 - 10
15.10.2019 09:00:00 -9,0 -10,0 2 1 - 10
15.10.2019 08:00:00 -10,0 -11,0 4 2 SW 10
15.10.2019 07:00:00 -10,0 -11,0 4 2 SW 10
15.10.2019 06:00:00 -9,0 -10,0 5 3 SW 10
15.10.2019 05:00:00 -10,0 - 4 2 SW 10
15.10.2019 04:00:00 -9,0 -9,0 4 2 - 10
15.10.2019 03:00:00 -8,0 -9,0 5 3 WSW 10
15.10.2019 02:00:00 -7,0 -8,0 8 4 W 10
15.10.2019 01:00:00 -7,0 -9,0 8 4 WSW 10
15.10.2019 00:00:00 -6,0 -8,0 9 5 W 10
14.10.2019 23:00:00 -6,0 -8,0 5 3 WSW 10
14.10.2019 22:00:00 -5,0 -7,0 5 3 WSW 10
14.10.2019 21:00:00 -4,0 -6,0 5 3 WSW 10
14.10.2019 20:00:00 -4,0 -6,0 5 3 W 10
14.10.2019 19:00:00 -3,0 -5,0 9 5 W 10
14.10.2019 18:00:00 -2,0 -4,0 5 3 WNW 10
14.10.2019 17:00:00 0,0 -4,0 9 5 NNW 10
14.10.2019 16:00:00 0,0 -3,0 13 7 NW 10
14.10.2019 15:00:00 0,0 -3,0 8 4 WNW -
14.10.2019 14:00:00 0,0 -4,0 8 4 WNW -
14.10.2019 13:00:00 -1,0 -5,0 15 8 WNW -
14.10.2019 12:00:00 -1,0 -4,0 11 6 WNW 10
14.10.2019 11:00:00 -2,0 -5,0 11 6 NW 10
14.10.2019 10:00:00 -2,0 -5,0 11 6 WNW 10
14.10.2019 09:00:00 -2,0 - 11 6 WNW -
14.10.2019 08:00:00 -3,0 -5,0 11 6 WNW 10
14.10.2019 07:00:00 -3,0 -5,0 9 5 WNW 10
14.10.2019 06:00:00 -3,0 -4,0 9 5 WNW 10
14.10.2019 05:00:00 -2,0 -4,0 9 5 NW 10
14.10.2019 04:00:00 -2,0 -3,0 11 6 NW -
14.10.2019 03:00:00 -2,0 -3,0 9 5 NW -
14.10.2019 02:00:00 -1,0 -3,0 9 5 NW -
14.10.2019 01:00:00 -2,0 -3,0 11 6 NNW -
14.10.2019 00:00:00 -2,0 -2,0 8 4 NW 4,4
13.10.2019 23:00:00 -1,0 -2,0 8 4 NW 10
13.10.2019 22:00:00 -1,0 -2,0 9 5 NNW 10
13.10.2019 21:00:00 -1,0 -2,0 8 4 NNW 10
13.10.2019 20:00:00 -1,0 -2,0 8 4 NNW 10
13.10.2019 19:00:00 -1,0 -2,0 5 3 NNW 10
13.10.2019 18:00:00 -1,0 -1,0 8 4 NNW 10
13.10.2019 17:00:00 0,0 -1,0 8 4 N 10
13.10.2019 16:00:00 0,0 -1,0 4 2 NW -
13.10.2019 15:00:00 -1,0 -1,0 8 4 NW -
13.10.2019 14:00:00 0,0 -2,0 8 4 W -
13.10.2019 13:00:00 0,0 -2,0 8 4 WNW -
13.10.2019 12:00:00 -1,0 -3,0 8 4 WNW -
13.10.2019 11:00:00 -1,0 -3,0 8 4 WNW -
13.10.2019 10:00:00 -1,0 -3,0 8 4 W -
13.10.2019 09:00:00 -2,0 -3,0 8 4 W -
13.10.2019 08:00:00 -2,0 -3,0 5 3 W -
13.10.2019 07:00:00 -2,0 -4,0 8 4 WNW -
13.10.2019 06:00:00 -2,0 -4,0 11 6 NW -
13.10.2019 05:00:00 -2,0 -4,0 11 6 WNW -
13.10.2019 04:00:00 -2,0 -4,0 11 6 NW -
13.10.2019 03:00:00 -2,0 -4,0 8 4 NW -
13.10.2019 02:00:00 -2,0 -5,0 8 4 NW -
13.10.2019 01:00:00 -2,0 -4,0 8 4 NW -
13.10.2019 00:00:00 -2,0 -5,0 5 3 NW -
12.10.2019 23:00:00 -2,0 -5,0 5 3 NW -
12.10.2019 22:00:00 -2,0 -5,0 8 4 N -
12.10.2019 21:00:00 -2,0 -5,0 8 4 N -
12.10.2019 20:00:00 -2,0 -5,0 9 5 N -
12.10.2019 19:00:00 -2,0 -4,0 9 5 NNE -
12.10.2019 18:00:00 - - 9 5 NNE -
12.10.2019 17:00:00 -1,0 -5,0 9 5 NNE -
12.10.2019 16:00:00 -1,0 -4,0 9 5 N -
12.10.2019 15:00:00 -1,0 -4,0 9 5 NNE -
12.10.2019 14:00:00 -1,0 -5,0 13 7 N -
12.10.2019 13:00:00 -1,0 -5,0 15 8 N -
12.10.2019 12:00:00 -1,0 -4,0 11 6 N -
12.10.2019 11:00:00 -1,0 -5,0 13 7 NNE -
12.10.2019 10:00:00 -2,0 -4,0 9 5 NE -
12.10.2019 09:00:00 -2,0 -4,0 11 6 NNE -
12.10.2019 08:00:00 -2,0 -3,0 9 5 NNE -
12.10.2019 07:00:00 -2,0 -3,0 8 4 N -
12.10.2019 06:00:00 -2,0 -3,0 9 5 N -
12.10.2019 05:00:00 -2,0 -3,0 9 5 N -
12.10.2019 04:00:00 -2,0 -3,0 8 4 N -
12.10.2019 03:00:00 -2,0 -3,0 8 4 N 10
12.10.2019 02:00:00 -2,0 -3,0 5 3 NNE 10
12.10.2019 01:00:00 -1,0 -2,0 5 3 N 10
12.10.2019 00:00:00 -3,0 -3,0 2 1 - 10
11.10.2019 23:00:00 -3,0 -3,0 5 3 NNW 10

tt = temperature
td = dewpoint
ff = wind speed
dd = wind direction
vv = visibility

Next stations